Terminal Aerodrome Forecast
Issued by NWS Sterling, VA

Current Version | Previous Version | Graphics & Text | Print | Product List | Glossary On
Versions: 1 2 3 4 5 6 7 8 9 10 11 12 13 14
645
FTUS41 KLWX 151137
TAFMRB
TAF
KMRB 151137Z 1512/1612 VRB03KT P6SM OVC040
     FM151500 17004KT P6SM OVC030
     FM151900 21006KT P6SM OVC040
     FM152300 26006KT P6SM BKN060
     FM160000 27006KT P6SM SCT250
     FM160800 26008KT P6SM SCT045=

USA.gov is the U.S. government's official web portal to all federal, state and local government web resources and services.